Scottsdale, AZ (85250)

11:05 AM MST on February 19, 2017 (GMT -0700)
Old Town Scottsdale-North | | Change Station

Elev 1273 ft 33.52 °N, 111.91 °W | Updated 4 seconds ago

Overcast
Overcast
51.8 °F
Feels Like 51.8 °F
N
4.2
Wind Variable Wind from SE
Gusts 4.9 mph

Today
High -- | Low -- °F
--% Chance of Precip.
Yesterday
High -- | Low -- °F
Precip. -- in
Pressure 29.92 in
Visibility 7.0 miles
Clouds Mostly Cloudy 600 ft
Overcast 1200 ft
Dew Point 50 °F
Humidity 92%
Rainfall 0.00 in
Snow Depth Not available.
7:07 AM 6:16 PM
Last Quarter, 41% visible
METAR KSDL 191753Z 14007KT 7SM BKN006 OVC012 10/09 A2994 RMK AO2 RAE53 CIG 004V009 SLP132 P0004 60013 T01000089 10106 20094 53017
Pressure 29.92 in
Visibility 7.0 miles
Clouds Mostly Cloudy 600 ft
Overcast 1200 ft
Dew Point 50 °F
Humidity 92%
Rainfall 0.00 in
Snow Depth Not available.
7:07 AM 6:16 PM
Last Quarter, 41% visible
METAR KSDL 191753Z 14007KT 7SM BKN006 OVC012 10/09 A2994 RMK AO2 RAE53 CIG 004V009 SLP132 P0004 60013 T01000089 10106 20094 53017

Get Your Daily Forecast Email!

Thanks for signing up!

Be on the lookout for a verification email in your inbox.

You'll start receiving the daily forecast at 8 AM.

×

10-Day Weather Forecast

Almanac

Astronomy

Feb. 19, 2017 Rise Set
Actual Time
Civil Twilight
Nautical Twilight
Astronomical Twilight
Moon
Length of Visible Light
Length of Day
Tomorrow will be .
, % of the Moon is Illuminated

Today's Extremes

State Highs State Lows

Community

WunderPhotos

Upload Photos

1,962,540 photos uploaded!

WunderBlog® & News

Nearby

Air Quality

  Air Quality AQ Index Pollutant
Not available.

Snow Depth

Station Depth Elevation

Earthquake Activity

City Distance Mag. Time & Date
Minimum magnitude displayed is 2.5.

Coastal Water Temperatures

Place Temperature

Stations

Nearby Weather Stations

Station Location Temp. Windchill Dew Point Humidity Wind Precip. Elev Updated Type
                   

Watches & Warnings

There are currently no watches in effect.